Time;durP1;ratioP1;P1;durP2;ratioP2;P2;SDS_P1;SDS_P2;PMS_P1;PMS_P2;Temp;Humidity;BMP_temperature;BMP_pressure;BME280_temperature;BME280_humidity;BME280_pressure;Samples;Min_cycle;Max_cycle;Signal;HPM_P1;HPM_P2
2021/04/07 00:00:38;;;;;;;17.17;7.25;;;;;;;0.16;62.46;99236.08;2219065;78;33956;-62
2021/04/07 00:03:41;;;;;;;21.35;9.08;;;;;;;0.09;62.49;99236.22;2216333;80;27705;-65
2021/04/07 00:06:44;;;;;;;19.10;7.60;;;;;;;0.05;62.43;99234.55;2216669;78;27632;-64
2021/04/07 00:09:46;;;;;;;16.70;8.10;;;;;;;0.04;62.62;99235.92;2248335;78;31149;-65
2021/04/07 00:12:48;;;;;;;16.73;8.40;;;;;;;0.02;62.67;99233.77;2256422;78;31152;-66
2021/04/07 00:15:51;;;;;;;15.68;8.10;;;;;;;0.04;62.86;99235.92;2255141;78;33976;-68
2021/04/07 00:18:53;;;;;;;18.25;8.23;;;;;;;0.03;63.06;99237.67;2235959;78;29165;-66
2021/04/07 00:21:55;;;;;;;16.80;8.00;;;;;;;0.07;62.99;99239.33;2216440;80;27781;-67
2021/04/07 00:24:58;;;;;;;19.35;8.45;;;;;;;0.14;63.25;99243.56;2231027;78;31137;-67
2021/04/07 00:28:20;;;;;;;17.80;7.67;;;;;;;0.20;63.38;99252.20;2216692;78;29401;-65
2021/04/07 00:31:22;;;;;;;15.25;8.40;;;;;;;0.27;63.29;99248.52;2224136;78;34066;-64
2021/04/07 00:34:24;;;;;;;19.42;8.55;;;;;;;0.33;63.23;99251.02;2255468;78;30138;-64
2021/04/07 00:37:26;;;;;;;16.87;8.95;;;;;;;0.42;63.36;99253.84;2246665;78;27709;-64
2021/04/07 00:40:28;;;;;;;14.20;7.45;;;;;;;0.48;63.22;99261.61;2256141;78;29787;-62
2021/04/07 00:43:31;;;;;;;14.60;8.43;;;;;;;0.56;63.24;99262.30;2224586;78;31144;-67
2021/04/07 00:46:36;;;;;;;16.57;7.55;;;;;;;0.64;63.32;99260.78;2209191;79;33118;-62
2021/04/07 00:49:39;;;;;;;13.68;7.72;;;;;;;0.73;63.31;99264.95;2189044;81;29268;-69
2021/04/07 00:52:42;;;;;;;15.45;6.97;;;;;;;0.80;63.21;99267.82;2189224;81;27595;-62
2021/04/07 00:55:45;;;;;;;19.80;7.40;;;;;;;0.87;63.11;99269.84;2197551;79;28841;-62
2021/04/07 00:58:47;;;;;;;15.00;7.33;;;;;;;0.94;63.08;99266.14;2189275;79;31143;-63
2021/04/07 01:01:53;;;;;;;14.90;7.30;;;;;;;1.02;63.01;99261.51;2188996;81;33424;-63
2021/04/07 01:04:54;;;;;;;;;;;;;;;1.04;62.81;99261.48;2208573;79;29178;-63
2021/04/07 01:07:57;;;;;;;15.83;7.37;;;;;;;1.01;62.72;99261.09;2165211;81;27649;-69
2021/04/07 01:11:01;;;;;;;12.85;6.65;;;;;;;0.99;62.64;99262.94;2203854;79;28983;-64
2021/04/07 01:14:04;;;;;;;12.03;6.40;;;;;;;0.96;62.44;99264.77;2225694;79;31141;-63
2021/04/07 01:17:07;;;;;;;14.90;7.55;;;;;;;0.90;62.57;99269.77;2184867;79;33983;-63
2021/04/07 01:20:16;;;;;;;14.87;6.83;;;;;;;0.81;62.54;99262.96;2189260;79;29137;-63
2021/04/07 01:23:37;;;;;;;13.68;6.28;;;;;;;0.78;62.70;99273.58;2189137;81;27674;-63
2021/04/07 01:26:39;;;;;;;14.47;6.08;;;;;;;0.74;62.72;99271.95;2199041;79;28834;-62
2021/04/07 01:29:42;;;;;;;16.02;7.28;;;;;;;0.71;62.92;99271.56;2227687;79;31147;-63
2021/04/07 01:32:45;;;;;;;12.07;6.47;;;;;;;0.69;63.01;99269.41;2194958;79;33113;-68
2021/04/07 01:35:47;;;;;;;10.72;6.03;;;;;;;0.69;63.17;99264.14;2189581;79;29158;-64
2021/04/07 01:38:50;;;;;;;10.80;5.37;;;;;;;0.70;63.21;99272.47;2223583;79;27670;-63
2021/04/07 01:41:52;;;;;;;12.63;6.75;;;;;;;0.74;63.30;99269.31;2226691;78;28749;-68
2021/04/07 01:44:55;;;;;;;9.20;5.90;;;;;;;0.77;63.36;99277.59;2243486;78;31203;-63
2021/04/07 01:47:58;;;;;;;13.20;6.83;;;;;;;0.82;63.47;99279.66;2225762;78;33342;-62
2021/04/07 01:51:00;;;;;;;11.57;6.15;;;;;;;0.85;63.54;99278.23;2247343;78;29160;-68
2021/04/07 01:54:06;;;;;;;11.40;6.60;;;;;;;0.89;63.55;99275.94;2216313;80;28080;-63
2021/04/07 01:57:09;;;;;;;10.70;6.35;;;;;;;0.94;63.62;99275.81;2217770;78;29779;-65
2021/04/07 02:00:13;;;;;;;12.28;7.00;;;;;;;0.98;63.65;99282.30;2256338;78;31198;-67
2021/04/07 02:03:15;;;;;;;10.60;7.43;;;;;;;1.03;63.46;99279.53;2216910;78;34310;-62
2021/04/07 02:06:17;;;;;;;16.10;7.40;;;;;;;1.10;63.54;99279.77;2245332;78;29173;-63
2021/04/07 02:09:20;;;;;;;9.68;6.45;;;;;;;1.14;63.59;99277.45;2256313;78;27760;-68
2021/04/07 02:12:23;;;;;;;9.40;6.08;;;;;;;1.16;63.47;99275.65;2228186;78;28825;-64
2021/04/07 02:15:26;;;;;;;10.28;5.78;;;;;;;1.24;63.47;99277.22;2251319;78;31647;-68
2021/04/07 02:18:28;;;;;;;9.15;4.90;;;;;;;1.24;63.19;99279.39;2236639;78;33003;-62
2021/04/07 02:22:07;;;;;;;6.72;4.58;;;;;;;1.26;63.07;99284.61;2236927;78;27614;-64
2021/04/07 02:25:11;;;;;;;10.38;6.58;;;;;;;1.27;63.01;99286.34;2216883;78;27608;-68
2021/04/07 02:28:13;;;;;;;8.43;5.62;;;;;;;1.28;62.92;99283.68;2216167;80;29841;-63
2021/04/07 02:31:15;;;;;;;8.95;5.47;;;;;;;1.32;62.88;99287.09;2246008;78;31918;-67
2021/04/07 02:34:18;;;;;;;10.25;5.12;;;;;;;1.39;62.90;99296.58;2254976;78;33076;-68
2021/04/07 02:37:21;;;;;;;8.15;5.37;;;;;;;1.44;62.85;99285.41;2219395;78;29385;-63
2021/04/07 02:40:23;;;;;;;9.68;5.00;;;;;;;1.49;62.69;99292.75;2237635;78;27744;-67
2021/04/07 02:43:25;;;;;;;8.68;5.05;;;;;;;1.52;62.56;99289.15;2213695;77;28832;-69
2021/04/07 02:46:27;;;;;;;10.32;5.53;;;;;;;1.56;62.58;99297.40;2177490;80;31145;-63
2021/04/07 02:49:30;;;;;;;12.35;6.55;;;;;;;1.60;62.49;99293.77;2187061;80;33071;-67
2021/04/07 02:52:32;;;;;;;8.08;5.40;;;;;;;1.61;62.37;99295.94;2185475;80;29167;-69
2021/04/07 02:58:50;;;;;;;10.20;6.33;;;;;;;1.71;62.40;99292.58;2286815;77;27659;-68
2021/04/07 03:01:52;;;;;;;9.10;6.22;;;;;;;1.70;62.29;99290.41;2240271;78;27681;-62
2021/04/07 03:04:54;;;;;;;12.35;6.53;;;;;;;1.74;62.30;99299.94;2220594;78;29425;-63
2021/04/07 03:07:57;;;;;;;10.63;5.97;;;;;;;1.79;62.24;99298.03;2259218;78;31252;-65
2021/04/07 03:11:09;;;;;;;10.43;7.17;;;;;;;1.82;62.22;99300.59;2259409;78;33104;-63
2021/04/07 03:14:14;;;;;;;10.48;6.53;;;;;;;1.86;62.23;99300.51;2250415;78;28486;-63
2021/04/07 03:17:16;;;;;;;11.22;6.55;;;;;;;1.91;62.33;99307.81;2221978;78;27705;-67
2021/04/07 03:20:19;;;;;;;11.28;7.30;;;;;;;1.96;62.31;99304.15;2220974;78;28839;-64
2021/04/07 03:23:21;;;;;;;9.03;6.42;;;;;;;1.96;62.22;99305.47;2259548;78;31495;-69
2021/04/07 03:26:24;;;;;;;13.25;6.97;;;;;;;1.99;62.23;99310.25;2234605;78;33856;-70
2021/04/07 03:29:26;;;;;;;13.45;7.17;;;;;;;1.99;62.21;99304.50;2243104;78;28851;-69
2021/04/07 03:32:29;;;;;;;13.68;7.78;;;;;;;2.00;62.31;99309.31;2228729;78;27676;-63
2021/04/07 03:35:31;;;;;;;9.95;6.40;;;;;;;2.02;62.22;99312.34;2218470;80;28845;-63
2021/04/07 03:38:34;;;;;;;11.30;6.78;;;;;;;2.04;62.21;99316.23;2219145;80;31577;-65
2021/04/07 03:41:36;;;;;;;12.75;7.87;;;;;;;2.05;62.22;99319.29;2237730;78;33131;-68
2021/04/07 03:44:39;;;;;;;10.95;7.17;;;;;;;2.07;62.28;99322.75;2226984;78;28867;-68
2021/04/07 03:47:41;;;;;;;9.08;7.03;;;;;;;2.10;62.28;99322.66;2216664;80;27733;-64
2021/04/07 03:50:45;;;;;;;10.03;6.58;;;;;;;2.11;62.21;99319.97;2224317;78;28883;-68
2021/04/07 03:53:48;;;;;;;10.45;6.55;;;;;;;2.10;62.15;99323.98;2258338;78;31124;-68
2021/04/07 03:56:50;;;;;;;8.63;6.10;;;;;;;2.12;62.06;99327.45;2256176;78;33963;-64
2021/04/07 03:59:52;;;;;;;8.70;6.40;;;;;;;2.11;61.93;99331.85;2248542;79;29077;-68
2021/04/07 04:02:55;;;;;;;9.83;6.42;;;;;;;2.12;61.82;99336.23;2214387;79;27714;-65
2021/04/07 04:05:57;;;;;;;9.08;6.37;;;;;;;2.11;61.71;99337.14;2209659;80;28827;-63
2021/04/07 04:08:59;;;;;;;8.20;5.10;;;;;;;2.11;61.71;99342.89;2209013;80;31140;-63
2021/04/07 04:12:02;;;;;;;8.65;5.47;;;;;;;2.12;61.58;99342.83;2209314;79;33176;-62
2021/04/07 04:15:09;;;;;;;9.20;6.10;;;;;;;2.11;61.53;99346.38;2208907;80;28866;-62
2021/04/07 04:18:11;;;;;;;11.70;7.33;;;;;;;2.12;61.41;99353.41;2207671;80;27790;-67
2021/04/07 04:21:13;;;;;;;9.13;6.72;;;;;;;2.12;61.38;99354.72;2208692;80;28833;-66
2021/04/07 04:24:15;;;;;;;14.63;6.97;;;;;;;2.15;61.38;99352.46;2208666;80;31218;-63
2021/04/07 04:27:18;;;;;;;9.78;5.85;;;;;;;2.16;61.37;99350.20;2213144;79;34624;-68
2021/04/07 04:30:23;;;;;;;8.63;5.60;;;;;;;2.17;61.25;99357.69;2242878;79;28909;-67
2021/04/07 04:33:25;;;;;;;11.15;4.40;;;;;;;2.17;61.28;99361.18;2206952;80;27745;-64
2021/04/07 04:36:28;;;;;;;12.75;6.50;;;;;;;2.16;61.30;99360.77;2205621;80;30082;-67
2021/04/07 04:39:31;;;;;;;9.80;6.37;;;;;;;2.16;61.28;99356.80;2206299;80;31199;-65
2021/04/07 04:42:33;;;;;;;14.47;6.62;;;;;;;2.15;61.38;99361.71;2207346;79;34001;-65
2021/04/07 04:45:38;;;;;;;11.95;6.97;;;;;;;2.16;61.39;99359.45;2245939;79;28854;-66
2021/04/07 04:48:41;;;;;;;11.75;6.72;;;;;;;2.17;61.27;99360.33;2246079;79;27760;-64
2021/04/07 04:51:43;;;;;;;10.80;6.90;;;;;;;2.19;61.35;99367.76;2207199;79;29834;-64
2021/04/07 04:54:46;;;;;;;11.12;6.12;;;;;;;2.23;61.51;99374.69;2208312;80;31980;-65
2021/04/07 04:57:48;;;;;;;7.62;5.50;;;;;;;2.25;61.37;99380.77;2207879;80;34334;-64
2021/04/07 05:00:50;;;;;;;8.38;5.83;;;;;;;2.30;61.27;99381.97;2215145;78;29403;-64
2021/04/07 05:03:55;;;;;;;9.83;5.80;;;;;;;2.33;61.23;99379.20;2208197;80;27655;-68
2021/04/07 05:06:57;;;;;;;11.53;6.20;;;;;;;2.35;61.17;99386.20;2208665;80;28896;-64
2021/04/07 05:09:59;;;;;;;9.13;6.12;;;;;;;2.39;61.12;99389.60;2208706;80;31143;-67
2021/04/07 05:13:02;;;;;;;9.20;5.90;;;;;;;2.42;61.00;99386.88;2228022;79;33158;-69
2021/04/07 05:16:05;;;;;;;9.98;6.67;;;;;;;2.46;61.02;99397.77;2208081;80;29697;-65
2021/04/07 05:19:08;;;;;;;7.92;5.53;;;;;;;2.51;61.25;99395.82;2223732;79;27765;-67
2021/04/07 05:22:10;;;;;;;10.60;6.30;;;;;;;2.54;61.01;99401.49;2212747;79;28812;-65
2021/04/07 05:25:13;;;;;;;9.43;6.55;;;;;;;2.56;61.14;99403.16;2208446;80;32559;-64
2021/04/07 05:28:15;;;;;;;11.93;6.55;;;;;;;2.61;61.25;99407.45;2209920;79;32409;-67
2021/04/07 05:31:18;;;;;;;14.80;7.22;;;;;;;2.64;61.03;99417.94;2220775;79;28838;-64
2021/04/07 05:34:21;;;;;;;11.75;6.83;;;;;;;2.64;61.25;99421.91;2232748;79;27665;-65
2021/04/07 05:37:23;;;;;;;10.60;6.40;;;;;;;2.67;61.37;99425.75;2248222;79;28812;-63
2021/04/07 05:40:25;;;;;;;16.60;7.90;;;;;;;2.67;61.51;99428.39;2248137;79;32543;-64
2021/04/07 05:43:29;;;;;;;12.68;8.05;;;;;;;2.66;61.70;99431.95;2247410;79;33109;-64
2021/04/07 05:46:31;;;;;;;11.10;7.85;;;;;;;2.69;61.92;99430.09;2247944;79;28849;-66
2021/04/07 05:49:33;;;;;;;14.05;8.50;;;;;;;2.77;61.98;99442.19;2248175;79;27648;-63
2021/04/07 05:52:35;;;;;;;16.75;10.65;;;;;;;2.76;62.52;99440.46;2224637;79;31033;-66
2021/04/07 05:55:50;;;;;;;10.25;6.97;;;;;;;2.74;62.92;99447.98;2206647;80;31135;-63
2021/04/07 05:58:52;;;;;;;9.18;6.60;;;;;;;2.72;63.43;99446.31;2208321;79;32367;-63
2021/04/07 06:01:54;;;;;;;14.47;7.60;;;;;;;2.68;63.53;99451.28;2248450;79;28928;-62
2021/04/07 06:04:58;;;;;;;11.48;6.85;;;;;;;2.73;63.92;99455.51;2248222;79;27690;-64
2021/04/07 06:08:01;;;;;;;11.93;7.75;;;;;;;2.76;64.32;99449.28;2214830;79;28897;-65
2021/04/07 06:11:03;;;;;;;10.53;7.17;;;;;;;2.80;64.14;99461.94;2240229;79;31205;-62
2021/04/07 06:14:06;;;;;;;8.95;6.50;;;;;;;2.80;64.21;99461.50;2233027;79;34151;-63
2021/04/07 06:17:09;;;;;;;12.03;6.65;;;;;;;2.80;64.23;99468.11;2247983;79;29753;-70
2021/04/07 06:20:13;;;;;;;10.40;7.50;;;;;;;2.76;64.24;99467.80;2221367;78;27633;-63
2021/04/07 06:23:17;;;;;;;12.00;7.72;;;;;;;2.76;64.46;99473.52;2248306;79;29030;-65
2021/04/07 06:26:19;;;;;;;12.05;8.60;;;;;;;2.77;64.73;99480.11;2248384;79;31134;-72
2021/04/07 06:29:22;;;;;;;11.40;8.00;;;;;;;2.81;64.88;99483.08;2241011;79;33125;-64
2021/04/07 06:32:24;;;;;;;15.13;8.73;;;;;;;2.88;64.93;99485.92;2209110;79;29036;-65
2021/04/07 06:35:26;;;;;;;11.30;7.87;;;;;;;2.97;65.04;99486.09;2208112;80;28174;-65
2021/04/07 06:38:30;;;;;;;15.93;9.38;;;;;;;3.01;64.90;99486.41;2208587;80;28835;-62
2021/04/07 06:41:35;;;;;;;13.20;9.55;;;;;;;3.07;64.93;99486.66;2207698;80;32052;-63
2021/04/07 06:44:37;;;;;;;11.20;6.75;;;;;;;3.28;65.13;99482.45;2208923;80;33127;-65
2021/04/07 06:47:40;;;;;;;13.00;8.05;;;;;;;3.75;65.61;99483.09;2234985;79;28841;-66
2021/04/07 06:50:46;;;;;;;14.38;8.15;;;;;;;4.08;64.61;99484.58;2235777;79;28251;-65
2021/04/07 06:53:50;;;;;;;;;;;;;;;4.61;64.89;99480.88;2211675;79;28916;-65
2021/04/07 06:56:53;;;;;;;8.18;6.42;;;;;;;5.15;63.94;99486.70;2230318;79;31932;-63
2021/04/07 06:59:55;;;;;;;15.32;9.23;;;;;;;5.63;63.22;99487.86;2217598;79;33104;-66
2021/04/07 07:03:02;;;;;;;10.90;7.12;;;;;;;6.14;62.76;99484.82;2203619;79;28868;-64
2021/04/07 07:06:05;;;;;;;10.00;6.70;;;;;;;6.48;61.41;99484.14;2202384;79;27665;-65
2021/04/07 07:09:19;;;;;;;9.35;7.15;;;;;;;6.54;60.70;99493.19;2206436;79;31146;-63
2021/04/07 07:12:23;;;;;;;14.60;6.75;;;;;;;6.57;60.52;99488.66;2191701;79;31145;-65
2021/04/07 07:15:26;;;;;;;13.85;7.62;;;;;;;6.61;60.33;99495.09;2199610;80;34013;-66
2021/04/07 07:18:29;;;;;;;12.82;6.92;;;;;;;6.75;60.01;99489.59;2200685;79;29286;-67
2021/04/07 07:21:32;;;;;;;13.68;7.00;;;;;;;6.72;59.04;99496.38;2199101;80;27719;-63
2021/04/07 07:24:37;;;;;;;10.95;5.55;;;;;;;6.53;58.87;99502.59;2198809;80;28920;-64
2021/04/07 07:27:41;;;;;;;11.43;5.05;;;;;;;6.47;58.27;99501.52;2199407;80;32238;-68
2021/04/07 07:30:45;;;;;;;14.05;7.17;;;;;;;6.52;58.38;99505.70;2221295;79;34081;-64
2021/04/07 07:33:47;;;;;;;8.08;5.60;;;;;;;6.57;58.35;99502.81;2237939;79;29835;-67
2021/04/07 07:36:50;;;;;;;8.68;4.58;;;;;;;6.52;58.16;99512.83;2238796;79;27711;-67
2021/04/07 07:39:53;;;;;;;11.60;5.10;;;;;;;6.43;57.58;99514.11;2237884;79;29703;-68
2021/04/07 07:42:56;;;;;;;10.65;4.87;;;;;;;6.46;58.00;99521.93;2237360;79;31130;-71
2021/04/07 07:46:12;;;;;;;12.80;5.97;;;;;;;6.44;57.38;99522.49;2239188;79;33970;-67
2021/04/07 07:49:18;;;;;;;13.95;6.78;;;;;;;6.37;57.23;99530.34;2207668;79;29096;-67
2021/04/07 07:52:30;;;;;;;22.75;14.63;;;;;;;6.27;57.13;99529.03;2200357;79;27746;-67
2021/04/07 07:55:39;;;;;;;12.07;5.95;;;;;;;6.26;56.71;99533.47;2198856;80;28873;-66
2021/04/07 07:58:47;;;;;;;12.30;6.72;;;;;;;6.32;56.86;99537.66;2202772;80;31136;-66
2021/04/07 08:01:50;;;;;;;12.95;6.12;;;;;;;6.46;56.88;99549.02;2207823;80;34476;-65
2021/04/07 08:04:53;;;;;;;14.13;6.80;;;;;;;6.69;56.43;99547.52;2208541;80;29279;-67
2021/04/07 08:07:57;;;;;;;10.53;6.47;;;;;;;6.95;56.60;99552.09;2208582;80;27698;-66
2021/04/07 08:10:59;;;;;;;11.95;7.67;;;;;;;7.14;55.98;99552.56;2208249;80;28895;-63
2021/04/07 08:14:02;;;;;;;12.15;6.97;;;;;;;7.21;55.69;99557.13;2150121;80;31347;-67
2021/04/07 08:17:06;;;;;;;8.70;5.22;;;;;;;7.15;55.64;99557.80;2205303;79;34036;-64
2021/04/07 08:20:09;;;;;;;7.85;5.40;;;;;;;7.12;54.94;99565.08;2207754;80;29174;-63
2021/04/07 08:23:13;;;;;;;8.70;5.50;;;;;;;7.15;55.12;99566.27;2208932;80;27637;-60
2021/04/07 08:26:18;;;;;;;11.25;5.62;;;;;;;7.11;54.91;99571.34;2187402;80;29793;-61
2021/04/07 08:29:20;;;;;;;18.20;9.40;;;;;;;6.93;54.46;99571.27;2215480;78;32109;-63
2021/04/07 08:32:23;;;;;;;22.55;12.75;;;;;;;6.80;54.60;99574.95;2255702;78;34012;-65
2021/04/07 08:35:47;;;;;;;15.90;9.40;;;;;;;6.68;54.43;99581.73;2255662;78;29961;-64
2021/04/07 08:39:08;;;;;;;8.73;6.70;;;;;;;6.57;54.57;99581.32;2089679;85;27724;-64
2021/04/07 08:42:14;;;;;;;10.20;5.12;;;;;;;6.54;54.84;99586.77;2089742;85;29610;-62
2021/04/07 08:45:16;;;;;;;13.75;8.75;;;;;;;6.52;54.42;99591.33;2064560;85;32220;-61
2021/04/07 08:48:21;;;;;;;11.33;5.17;;;;;;;6.50;54.04;99592.70;2089707;85;34484;-64
2021/04/07 08:54:53;;;;;;;14.60;6.47;;;;;;;6.54;53.94;99586.33;2252066;77;31596;-63
2021/04/07 08:58:07;;;;;;;10.03;6.30;;;;;;;6.59;54.19;99592.77;2217627;80;27728;-63
2021/04/07 09:01:14;;;;;;;14.70;8.55;;;;;;;6.74;53.84;99589.89;2217614;80;29768;-63
2021/04/07 09:04:20;;;;;;;16.62;10.15;;;;;;;6.84;53.33;99592.52;2216296;80;31162;-63
2021/04/07 09:07:21;;;;;;;50.17;24.37;;;;;;;6.78;53.37;99602.59;2217870;80;33131;-63
2021/04/07 09:10:24;;;;;;;52.33;23.30;;;;;;;6.73;53.71;99604.14;2217512;80;29090;-67
2021/04/07 09:13:33;;;;;;;12.60;7.78;;;;;;;6.67;53.90;99603.95;2174541;81;27682;-66
2021/04/07 09:16:40;;;;;;;14.35;8.83;;;;;;;6.64;53.59;99606.74;2174672;81;28925;-66
2021/04/07 09:19:43;;;;;;;19.20;9.53;;;;;;;6.62;53.38;99611.27;2153372;81;30365;-66
2021/04/07 09:22:46;;;;;;;47.38;21.45;;;;;;;6.60;54.01;99616.27;2137014;83;33111;-67
2021/04/07 09:25:56;;;;;;;23.42;11.95;;;;;;;6.63;53.88;99617.44;2173787;81;28851;-67
2021/04/07 09:28:58;;;;;;;20.10;10.68;;;;;;;6.71;54.21;99629.07;2136627;83;27712;-66
2021/04/07 09:32:02;;;;;;;21.97;12.37;;;;;;;6.68;53.95;99627.42;2174497;81;30237;-63
2021/04/07 09:35:11;;;;;;;16.15;7.45;;;;;;;6.78;54.04;99627.43;2137340;83;32322;-63
2021/04/07 09:38:17;;;;;;;10.82;5.50;;;;;;;6.96;53.81;99622.17;2103095;84;28105;-63
2021/04/07 09:41:30;;;;;;;9.55;4.83;;;;;;;7.22;53.38;99624.12;2102760;84;28868;-62
2021/04/07 09:44:33;;;;;;;10.82;4.15;;;;;;;7.50;53.41;99626.34;2103172;84;28154;-63
2021/04/07 09:47:35;;;;;;;11.15;4.78;;;;;;;7.80;52.23;99626.25;2131243;83;28846;-66
2021/04/07 09:50:38;;;;;;;16.17;8.43;;;;;;;8.01;51.87;99630.53;2138334;82;31147;-68
2021/04/07 09:53:41;;;;;;;15.85;7.28;;;;;;;8.16;50.88;99616.90;2139169;81;33218;-67
2021/04/07 09:57:05;;;;;;;14.38;7.85;;;;;;;8.26;50.01;99619.97;2139316;82;28685;-66
2021/04/07 10:00:11;;;;;;;25.60;9.48;;;;;;;8.21;49.93;99628.66;2123207;82;33044;-67
2021/04/07 10:03:16;;;;;;;;;;;;;;;8.15;49.75;99639.19;2105875;84;28833;-65
2021/04/07 10:06:25;;;;;;;4.50;2.55;;;;;;;8.15;49.15;99642.30;2102698;81;32699;-65
2021/04/07 10:09:29;;;;;;;10.70;4.55;;;;;;;7.97;48.80;99635.61;2102603;84;34027;-64
2021/04/07 10:12:33;;;;;;;18.32;8.80;;;;;;;7.90;49.25;99639.54;2101338;84;28949;-63
2021/04/07 10:15:37;;;;;;;13.15;8.35;;;;;;;7.92;48.77;99635.00;2103054;84;27568;-63
2021/04/07 10:18:41;;;;;;;16.07;7.60;;;;;;;7.96;49.23;99635.70;2102907;84;28903;-63
2021/04/07 10:21:45;;;;;;;13.13;7.37;;;;;;;8.08;49.16;99641.75;2084535;84;31135;-67
2021/04/07 10:24:52;;;;;;;25.43;9.80;;;;;;;8.24;48.27;99640.98;2102417;84;34429;-63
2021/04/07 10:27:54;;;;;;;18.23;7.15;;;;;;;8.40;48.70;99649.08;2102761;84;28868;-64
2021/04/07 10:30:59;;;;;;;15.08;5.80;;;;;;;8.50;47.53;99644.56;2102727;84;27712;-63
2021/04/07 10:34:10;;;;;;;7.00;3.80;;;;;;;8.58;47.70;99649.95;2101395;84;28846;-64
2021/04/07 10:37:18;;;;;;;12.40;3.17;;;;;;;8.66;47.61;99653.11;2116980;83;32111;-64
2021/04/07 10:40:27;;;;;;;9.43;3.25;;;;;;;8.70;47.07;99651.13;2102278;84;33109;-65
2021/04/07 10:43:39;;;;;;;11.08;4.33;;;;;;;8.76;47.05;99637.47;2102370;84;29731;-65
2021/04/07 10:46:40;;;;;;;8.45;4.15;;;;;;;8.89;47.65;99635.86;2102508;84;28183;-64
2021/04/07 10:49:54;;;;;;;11.00;6.20;;;;;;;9.08;47.26;99633.05;2102475;84;29810;-65
2021/04/07 10:52:57;;;;;;;7.90;3.08;;;;;;;9.22;46.56;99636.77;2100822;84;31146;-66
2021/04/07 10:56:00;;;;;;;7.30;3.20;;;;;;;9.31;46.31;99644.30;2094664;83;33566;-64
2021/04/07 10:59:06;;;;;;;9.58;2.95;;;;;;;9.38;46.44;99647.01;2094664;85;28885;-65
2021/04/07 11:02:15;;;;;;;6.17;2.65;;;;;;;9.49;45.96;99658.45;2094955;84;27746;-64
2021/04/07 11:05:21;;;;;;;8.38;3.45;;;;;;;9.48;45.14;99659.40;2094824;85;29513;-65
2021/04/07 11:08:39;;;;;;;5.50;1.90;;;;;;;9.47;45.82;99657.67;2094798;85;32125;-65
2021/04/07 11:11:42;;;;;;;3.90;1.92;;;;;;;9.37;44.41;99647.11;2094077;85;33121;-66
2021/04/07 11:14:50;;;;;;;6.75;3.35;;;;;;;9.26;45.46;99653.04;2093951;84;28853;-67
2021/04/07 11:17:53;;;;;;;11.63;4.05;;;;;;;9.25;45.40;99649.52;2094477;84;27645;-65
2021/04/07 11:20:56;;;;;;;9.43;3.62;;;;;;;9.41;45.94;99655.35;2094848;83;28829;-66
2021/04/07 11:23:58;;;;;;;8.35;3.10;;;;;;;9.61;45.60;99660.92;2129858;83;31345;-65
2021/04/07 11:27:01;;;;;;;9.13;5.33;;;;;;;9.73;44.76;99662.89;2129787;83;34537;-65
2021/04/07 11:30:06;;;;;;;8.65;3.83;;;;;;;9.80;44.76;99659.88;2130502;83;30032;-65
2021/04/07 11:33:09;;;;;;;7.37;3.33;;;;;;;9.93;43.46;99664.07;2130676;83;27701;-65
2021/04/07 11:36:27;;;;;;;8.63;2.95;;;;;;;9.90;43.69;99666.42;2130455;83;28839;-64
2021/04/07 11:39:33;;;;;;;4.92;2.67;;;;;;;9.94;43.71;99672.00;2129820;83;31856;-64
2021/04/07 11:42:32;;;;;;;4.43;2.40;;;;;;;9.93;43.34;99670.76;2129070;83;34008;-63
2021/04/07 11:45:34;;;;;;;5.22;3.42;;;;;;;9.81;42.93;99661.12;2130380;83;29424;-64
2021/04/07 11:48:36;;;;;;;6.55;3.47;;;;;;;9.69;43.37;99669.84;2130605;83;27662;-64
2021/04/07 11:51:41;;;;;;;5.67;2.35;;;;;;;9.60;43.25;99665.03;2097792;83;28781;-64
2021/04/07 11:54:45;;;;;;;;;;;;;;;9.55;42.81;99667.94;2096472;84;31176;-64
2021/04/07 11:57:48;;;;;;;6.08;2.83;;;;;;;9.56;42.54;99667.88;2094650;83;33356;-64
2021/04/07 12:00:50;;;;;;;4.08;2.22;;;;;;;9.48;42.63;99661.22;2094689;85;28840;-65
2021/04/07 12:03:55;;;;;;;5.35;3.20;;;;;;;9.44;42.37;99661.84;2080839;85;27762;-64
2021/04/07 12:06:58;;;;;;;3.25;1.90;;;;;;;9.50;42.48;99664.68;2113498;83;28862;-64
2021/04/07 12:10:01;;;;;;;5.47;2.70;;;;;;;9.52;42.12;99670.32;2130161;83;31159;-63
2021/04/07 12:13:04;;;;;;;7.10;3.00;;;;;;;9.52;42.38;99670.32;2129778;83;33985;-64
2021/04/07 12:16:06;;;;;;;5.08;1.85;;;;;;;9.51;42.34;99660.56;2130316;83;28941;-64
2021/04/07 12:19:10;;;;;;;5.58;2.72;;;;;;;9.57;42.14;99658.02;2124283;83;27746;-64
2021/04/07 12:22:13;;;;;;;9.40;4.67;;;;;;;9.60;42.46;99653.84;2094691;85;28838;-65
2021/04/07 12:25:16;;;;;;;6.75;3.05;;;;;;;9.62;42.01;99653.75;2096262;83;31156;-67
2021/04/07 12:28:19;;;;;;;13.43;4.25;;;;;;;9.64;40.93;99667.89;2122582;83;35459;-63
2021/04/07 12:31:22;;;;;;;6.28;2.75;;;;;;;9.64;41.70;99661.21;2136425;83;28861;-69
2021/04/07 12:34:26;;;;;;;13.90;7.00;;;;;;;9.70;42.45;99671.09;2094821;85;28218;-61
2021/04/07 12:37:30;;;;;;;6.30;2.90;;;;;;;9.84;42.58;99661.45;2121014;83;28895;-64
2021/04/07 12:40:33;;;;;;;4.60;2.23;;;;;;;9.85;42.31;99675.17;2094724;85;31143;-75
2021/04/07 12:43:35;;;;;;;7.83;2.72;;;;;;;9.58;42.23;99672.66;2094516;83;33124;-64
2021/04/07 12:46:38;;;;;;;9.30;5.42;;;;;;;9.29;42.62;99671.59;2115326;83;28918;-66
2021/04/07 12:49:40;;;;;;;8.25;4.25;;;;;;;9.03;43.08;99672.50;2110908;83;27812;-64
2021/04/07 12:52:46;;;;;;;6.20;2.80;;;;;;;8.84;42.97;99665.10;2094574;85;28709;-61
2021/04/07 12:55:51;;;;;;;5.23;2.33;;;;;;;8.70;42.35;99660.47;2106101;80;32578;-61
2021/04/07 12:58:53;;;;;;;4.40;1.87;;;;;;;8.58;42.36;99658.84;2134099;83;32532;-62
2021/04/07 13:05:08;;;;;;;6.15;3.45;;;;;;;8.35;42.29;99664.84;2100792;78;27745;-62
2021/04/07 13:11:20;;;;;;;10.03;4.85;;;;;;;8.20;42.32;99665.63;2127213;80;28094;-62
2021/04/07 13:14:22;;;;;;;4.47;2.85;;;;;;;8.18;42.62;99664.83;2145395;82;34053;-61
2021/04/07 13:17:24;;;;;;;4.62;2.67;;;;;;;8.26;42.39;99661.33;2127105;83;28859;-63
2021/04/07 13:20:30;;;;;;;21.65;9.45;;;;;;;8.44;41.95;99656.00;2144238;82;27696;-61
2021/04/07 13:23:31;;;;;;;5.73;3.50;;;;;;;8.61;41.53;99661.81;2123942;82;28831;-61
2021/04/07 13:26:35;;;;;;;20.75;8.03;;;;;;;8.67;41.61;99662.84;2120482;83;27734;-62
2021/04/07 13:29:38;;;;;;;9.18;4.20;;;;;;;8.73;41.85;99671.85;2141372;82;35411;-61
2021/04/07 13:32:48;;;;;;;14.13;6.42;;;;;;;8.78;42.18;99663.59;2106368;83;28863;-64
2021/04/07 13:38:59;;;;;;;11.93;7.17;;;;;;;8.61;43.97;99677.84;2136752;82;29715;-66
2021/04/07 13:45:22;;;;;;;15.25;8.78;;;;;;;8.54;45.31;99665.28;2129576;82;33250;-65
2021/04/07 13:54:56;;;;;;;6.17;3.70;;;;;;;8.15;45.27;99702.33;2270253;77;27565;-63
2021/04/07 13:58:02;;;;;;;7.10;3.47;;;;;;;7.91;45.84;99715.95;2302403;77;28925;-62
2021/04/07 14:01:05;;;;;;;7.28;3.80;;;;;;;7.72;46.24;99710.16;2277882;77;31503;-66
2021/04/07 14:04:07;;;;;;;6.25;3.12;;;;;;;7.62;46.04;99730.16;2241671;77;34037;-64
2021/04/07 14:07:11;;;;;;;8.75;4.47;;;;;;;7.48;46.68;99744.16;2227557;78;28543;-63
2021/04/07 14:10:16;;;;;;;7.53;3.00;;;;;;;7.32;46.33;99737.79;2259071;78;27657;-65
2021/04/07 14:13:18;;;;;;;12.18;5.22;;;;;;;7.05;46.91;99744.28;2227842;78;29746;-65
2021/04/07 14:16:20;;;;;;;3.60;2.50;;;;;;;6.74;48.18;99766.91;2258738;78;31142;-65
2021/04/07 14:19:23;;;;;;;5.37;2.20;;;;;;;6.45;49.25;99764.13;2243995;78;33162;-65
2021/04/07 14:22:25;;;;;;;5.12;2.08;;;;;;;6.19;50.47;99780.23;2254961;78;28859;-69
2021/04/07 14:25:30;;;;;;;2.98;1.60;;;;;;;5.85;51.38;99790.82;2248507;78;27799;-63
2021/04/07 14:28:33;;;;;;;4.85;2.20;;;;;;;5.53;51.99;99803.53;2230351;78;28772;-67
2021/04/07 14:31:39;;;;;;;12.60;5.45;;;;;;;5.15;52.84;99804.00;2222849;78;31146;-61
2021/04/07 14:34:41;;;;;;;11.40;3.92;;;;;;;4.84;52.72;99825.42;2248519;77;33124;-66
2021/04/07 14:37:43;;;;;;;8.45;4.28;;;;;;;4.56;53.60;99825.87;2247628;77;29628;-67
2021/04/07 14:40:45;;;;;;;12.85;5.95;;;;;;;4.38;53.61;99818.53;2240834;78;28141;-69
2021/04/07 14:43:48;;;;;;;5.58;3.70;;;;;;;4.31;54.46;99816.98;2197580;80;30195;-66
2021/04/07 14:46:50;;;;;;;6.58;4.00;;;;;;;4.25;55.54;99808.29;2258025;78;31144;-66
2021/04/07 14:49:53;;;;;;;7.83;3.27;;;;;;;4.15;55.59;99802.87;2253911;78;33274;-67
2021/04/07 14:52:55;;;;;;;8.25;4.53;;;;;;;3.97;55.76;99803.00;2254714;77;29727;-66
2021/04/07 14:55:58;;;;;;;8.75;4.42;;;;;;;3.93;56.32;99816.78;2255695;78;28107;-67